Suedburg, Pennsylvania
Current Conditions -  °F | °C
As of 8:58 AM on Friday 31 Oct 2014 (Local Time) from KMUI Reporting Station
Overcast Overcast  
Wind Chill:   Ceiling: 5500
Heat Index:   Visibility: 10mi
Dew Point:   Wind: 1mph
Humidity: 78%   Direction: 80°E
Pressure: 30.03"   Gusts: NA
Location:  40.5592°N, 76.3347°W
Report Text: KMUI 311258Z AUTO 08001KT 10SM OVC055 06/02 A3003 RMK AO2 SLP175 T00590023 $
Loading
Personal Weather Stations






























Interactive Weather Map
Tropical Storm Tracking
New forecast layout! Learn more

10-Day Weather Forecast

Advertisements
Track Severe Weather on mobile